CheckWX is a tool to help pilots better visualize weather data.  It is not intended as a substitute for an official pre-flight weather briefing.

02:30:50 UTC

KFTK METAR
Godman Army Air Field
Fort Knox, Kentucky, USA
Current

35 mins ago

KFTK 150156Z AUTO 00000KT 10SM CLR 22/19 A3005 RMK AO2 SLP173 T02180191
Observed
Jul-15 @ 01:56 UTC
Visibility
10 SM
Flight Rules
VFR
Cloud Levels
  • Clear skies
Temperature
22°C / 72°F
Dewpoint
19°C / 66°F
Humidity
83%
Altimeter
30.05" Hg
Pressure
1017.62 hPa
Previous

2 hours ago

KFTK 150056Z AUTO 00000KT 10SM CLR 24/20 A3004 RMK AO2 SLP170 T02420199
Observed
Jul-15 @ 00:56 UTC
Visibility
10 SM
Flight Rules
VFR
Cloud Levels
  • Clear skies
Temperature
24°C / 75°F
Dewpoint
20°C / 68°F
Humidity
78%
Altimeter
30.04" Hg
Pressure
1017.32 hPa
Previous

3 hours ago

KFTK 142356Z AUTO 01003KT 10SM CLR 29/18 A3004 RMK AO2 SLP169 T02870175 10303 20282 50002
Observed
Jul-14 @ 23:56 UTC
Wind
  • 010° at 3 KTS
Visibility
10 SM
Flight Rules
VFR
Cloud Levels
  • Clear skies
Temperature
29°C / 84°F
Dewpoint
18°C / 64°F
Humidity
51%
Altimeter
30.04" Hg
Pressure
1017.32 hPa